createdAt,value
2023-10-09T00:02:52.000Z,97206.85
2023-10-09T00:07:53.000Z,97206.85
2023-10-09T00:12:53.000Z,97217.07
2023-10-09T00:17:52.000Z,97217.07
2023-10-09T00:22:52.000Z,97233.92
2023-10-09T00:27:53.000Z,97233.92
2023-10-09T00:32:53.000Z,97253.35
2023-10-09T00:37:52.000Z,97253.35
2023-10-09T00:42:53.000Z,97265.53
2023-10-09T00:47:53.000Z,97284.02
2023-10-09T00:52:53.000Z,97284.02
2023-10-09T00:57:53.000Z,97298.13
2023-10-09T01:02:53.000Z,97298.13
2023-10-09T01:07:52.000Z,97314
2023-10-09T01:12:53.000Z,97314
2023-10-09T01:17:53.000Z,97327.27
2023-10-09T01:22:53.000Z,97327.27
2023-10-09T01:27:53.000Z,97337.24
2023-10-09T01:32:53.000Z,97337.24
2023-10-09T01:37:53.000Z,97355.85
2023-10-09T01:42:53.000Z,97355.85
2023-10-09T01:47:53.000Z,97375.47
2023-10-09T01:52:52.000Z,97392.8
2023-10-09T01:57:53.000Z,97392.8
2023-10-09T02:02:53.000Z,97402.82
2023-10-09T02:07:52.000Z,97402.82
2023-10-09T02:12:53.000Z,97421.23
2023-10-09T02:17:53.000Z,97421.23
2023-10-09T02:22:53.000Z,97445.96
2023-10-09T02:27:52.000Z,97445.96
2023-10-09T02:32:53.000Z,97472.36
2023-10-09T02:37:54.000Z,97478.2
2023-10-09T02:42:53.000Z,97478.2
2023-10-09T02:47:53.000Z,97496.53
2023-10-09T02:52:53.000Z,97496.53
2023-10-09T02:57:53.000Z,97513.82
2023-10-09T03:02:53.000Z,97513.82
2023-10-09T03:12:53.000Z,97538.91
2023-10-09T03:17:54.000Z,97550.63
2023-10-09T03:22:53.000Z,97550.63
2023-10-09T03:27:53.000Z,97566.07
2023-10-09T03:32:53.000Z,97566.07
2023-10-09T03:37:53.000Z,97591.88
2023-10-09T03:42:53.000Z,97591.88
2023-10-09T03:47:53.000Z,97606.48
2023-10-09T03:52:53.000Z,97606.48
2023-10-09T03:57:53.000Z,97614.79
2023-10-09T04:02:53.000Z,97614.79
2023-10-09T04:07:54.000Z,97620.43
2023-10-09T04:12:53.000Z,97620.43
2023-10-09T04:17:53.000Z,97628.28
2023-10-09T04:22:53.000Z,97628.28
2023-10-09T04:27:53.000Z,97648.06
2023-10-09T04:32:53.000Z,97663.51
2023-10-09T04:37:53.000Z,97663.51
2023-10-09T04:42:53.000Z,97681.89
2023-10-09T04:47:53.000Z,97681.89
2023-10-09T04:52:53.000Z,97699.71
2023-10-09T04:57:53.000Z,97711.55
2023-10-09T05:02:53.000Z,97711.55
2023-10-09T05:07:53.000Z,97700.12
2023-10-09T05:12:53.000Z,97700.12
2023-10-09T05:17:53.000Z,97732.98
2023-10-09T05:22:53.000Z,97732.98
2023-10-09T05:27:53.000Z,97748.92
2023-10-09T05:32:53.000Z,97748.92
2023-10-09T05:37:53.000Z,97764.4
2023-10-09T05:42:54.000Z,97773.53
2023-10-09T05:47:53.000Z,97773.53
2023-10-09T05:52:53.000Z,97778.11
2023-10-09T05:57:53.000Z,97778.11
2023-10-09T06:03:09.000Z,97798.34
2023-10-09T06:07:53.000Z,97798.34
2023-10-09T06:12:53.000Z,97811.12
2023-10-09T06:17:53.000Z,97811.12
2023-10-09T06:22:53.000Z,97820.94
2023-10-09T06:27:53.000Z,97820.94
2023-10-09T06:32:53.000Z,97840.38
2023-10-09T06:47:53.000Z,97861.42
2023-10-09T06:52:52.000Z,97861.42
2023-10-09T06:57:53.000Z,97882.29
2023-10-09T07:02:53.000Z,97891.64
2023-10-09T07:07:53.000Z,97891.64
2023-10-09T07:12:52.000Z,97907.94
2023-10-09T07:17:53.000Z,97907.94
2023-10-09T07:22:53.000Z,97919.67
2023-10-09T07:27:53.000Z,97919.67
2023-10-09T07:32:53.000Z,97929.72
2023-10-09T07:37:53.000Z,97929.72
2023-10-09T07:42:53.000Z,97956.28
2023-10-09T07:47:52.000Z,97962.6
2023-10-09T07:52:52.000Z,97962.6
2023-10-09T07:57:52.000Z,97976.75
2023-10-09T08:02:53.000Z,97976.75
2023-10-09T08:08:18.000Z,97985.84
2023-10-09T08:17:53.000Z,98002.93
2023-10-09T08:22:53.000Z,97984.03
2023-10-09T08:27:52.000Z,97984.03
2023-10-09T08:37:52.000Z,98030.22
2023-10-09T08:42:52.000Z,98041.13
2023-10-09T08:47:53.000Z,98041.13
2023-10-09T08:52:53.000Z,98052.75
2023-10-09T08:57:53.000Z,98052.75
2023-10-09T09:02:53.000Z,98062.95
2023-10-09T09:07:53.000Z,98062.95
2023-10-09T09:12:53.000Z,98084.68
2023-10-09T09:17:53.000Z,98084.68
2023-10-09T09:22:53.000Z,98094.08
2023-10-09T09:27:52.000Z,98094.08
2023-10-09T09:32:53.000Z,98106.13
2023-10-09T09:37:52.000Z,98106.13
2023-10-09T09:42:53.000Z,98115.05
2023-10-09T09:47:53.000Z,98115.05
2023-10-09T09:52:53.000Z,98129.28
2023-10-09T09:57:57.000Z,98137.21
2023-10-09T10:02:52.000Z,98137.21
2023-10-09T10:12:53.000Z,98137.07
2023-10-09T10:17:53.000Z,98151.02
2023-10-09T10:22:52.000Z,98151.02
2023-10-09T10:27:53.000Z,98158.31
2023-10-09T10:32:53.000Z,98158.31
2023-10-09T10:37:52.000Z,98164.9
2023-10-09T10:42:53.000Z,98164.9
2023-10-09T10:47:52.000Z,98179.14
2023-10-09T10:52:54.000Z,98179.14
2023-10-09T10:57:53.000Z,98190.22
2023-10-09T11:02:53.000Z,98200.75
2023-10-09T11:07:53.000Z,98200.75
2023-10-09T11:12:52.000Z,98216.03
2023-10-09T11:17:53.000Z,98216.03
2023-10-09T11:22:53.000Z,98231.71
2023-10-09T11:27:52.000Z,98231.71
2023-10-09T11:32:53.000Z,98239.77
2023-10-09T11:37:52.000Z,98239.77
2023-10-09T11:42:53.000Z,98255.38
2023-10-09T11:47:53.000Z,98255.38
2023-10-09T11:52:54.000Z,98264.29
2023-10-09T11:57:53.000Z,98264.29
2023-10-09T12:02:54.000Z,98273.62
2023-10-09T12:07:52.000Z,98287.5
2023-10-09T12:12:53.000Z,98287.5
2023-10-09T12:17:53.000Z,98288.21
2023-10-09T12:22:53.000Z,98288.21
2023-10-09T12:27:53.000Z,98304.77
2023-10-09T12:32:53.000Z,98304.77
2023-10-09T12:37:53.000Z,98322.31
2023-10-09T12:42:52.000Z,98322.31
2023-10-09T12:47:54.000Z,98342.29
2023-10-09T12:57:53.000Z,98356.05
2023-10-09T13:02:52.000Z,98356.05
2023-10-09T13:07:53.000Z,98363.66
2023-10-09T13:12:53.000Z,98379.36
2023-10-09T13:17:53.000Z,98379.36
2023-10-09T13:23:03.000Z,98388.73
2023-10-09T13:27:52.000Z,98394.94
2023-10-09T13:32:54.000Z,98394.94
2023-10-09T13:37:53.000Z,98402.73
2023-10-09T13:42:53.000Z,98402.73
2023-10-09T13:47:54.000Z,98412.93
2023-10-09T13:52:53.000Z,98412.93
2023-10-09T14:02:53.000Z,98437.95
2023-10-09T14:07:52.000Z,98437.95
2023-10-09T14:12:53.000Z,98450.03
2023-10-09T14:17:53.000Z,98450.03
2023-10-09T14:22:53.000Z,98465.28
2023-10-09T14:27:53.000Z,98465.28
2023-10-09T14:32:53.000Z,98474.1
2023-10-09T14:37:53.000Z,98474.1
2023-10-09T14:42:53.000Z,98491.21
2023-10-09T14:47:52.000Z,98501.75
2023-10-09T14:52:57.000Z,98503.49
2023-10-09T14:57:53.000Z,98503.49
2023-10-09T15:02:52.000Z,98513.74
2023-10-09T15:07:57.000Z,98513.74
2023-10-09T15:12:53.000Z,98532.5
2023-10-09T15:17:53.000Z,98539.42
2023-10-09T15:22:53.000Z,98539.42
2023-10-09T15:27:53.000Z,98543.56
2023-10-09T15:37:54.000Z,98560.96
2023-10-09T15:42:52.000Z,98560.96
2023-10-09T15:47:52.000Z,98572.17
2023-10-09T15:52:53.000Z,98572.17
2023-10-09T15:57:53.000Z,98587.47
2023-10-09T16:02:53.000Z,98598.53
2023-10-09T16:07:52.000Z,98598.53
2023-10-09T16:12:53.000Z,98612.93
2023-10-09T16:17:53.000Z,98612.93
2023-10-09T16:22:53.000Z,98614.81
2023-10-09T16:27:53.000Z,98621.45
2023-10-09T16:32:54.000Z,98621.45
2023-10-09T16:42:54.000Z,98629.34
2023-10-09T16:47:53.000Z,98637.18
2023-10-09T16:52:53.000Z,98637.18
2023-10-09T16:57:53.000Z,98644.96
2023-10-09T17:02:53.000Z,98644.96
2023-10-09T17:12:53.000Z,98659.09
2023-10-09T17:17:53.000Z,98659.09
2023-10-09T17:22:53.000Z,98685.19
2023-10-09T17:27:53.000Z,98693.46
2023-10-09T17:32:52.000Z,98693.46
2023-10-09T17:37:53.000Z,98700.17
2023-10-09T17:42:54.000Z,98700.17
2023-10-09T17:47:53.000Z,98703.98
2023-10-09T17:52:52.000Z,98703.98
2023-10-09T17:57:53.000Z,98714.97
2023-10-09T18:02:54.000Z,98714.97
2023-10-09T18:07:52.000Z,98721.8
2023-10-09T18:12:53.000Z,98721.8
2023-10-09T18:17:52.000Z,98725.27
2023-10-09T18:22:53.000Z,98725.27
2023-10-09T18:32:52.000Z,98722.14
2023-10-09T18:37:52.000Z,98727.35
2023-10-09T18:42:52.000Z,98727.35
2023-10-09T18:47:52.000Z,98743.21
2023-10-09T18:52:53.000Z,98743.21
2023-10-09T18:57:53.000Z,98754.35
2023-10-09T19:02:53.000Z,98754.35
2023-10-09T19:07:53.000Z,98761.07
2023-10-09T19:12:53.000Z,98761.07
2023-10-09T19:17:53.000Z,98767.34
2023-10-09T19:22:54.000Z,98767.34
2023-10-09T19:27:53.000Z,98777.76
2023-10-09T19:32:52.000Z,98777.76
2023-10-09T19:37:53.000Z,98771.38
2023-10-09T19:42:53.000Z,98771.38
2023-10-09T19:47:53.000Z,98780.94
2023-10-09T19:52:53.000Z,98780.94
2023-10-09T19:57:52.000Z,98786.26
2023-10-09T20:02:53.000Z,98785.85
2023-10-09T20:07:55.000Z,98785.85
2023-10-09T20:12:53.000Z,98778.02
2023-10-09T20:17:53.000Z,98781.19
2023-10-09T20:22:54.000Z,98781.19
2023-10-09T20:27:53.000Z,98778.49
2023-10-09T20:32:53.000Z,98778.49
2023-10-09T20:37:53.000Z,98781.61
2023-10-09T20:42:52.000Z,98781.61
2023-10-09T20:47:54.000Z,98782.81
2023-10-09T20:52:52.000Z,98778.71
2023-10-09T20:57:53.000Z,98778.71
2023-10-09T21:02:54.000Z,98778.02
2023-10-09T21:07:53.000Z,98778.02
2023-10-09T21:12:53.000Z,98779.51
2023-10-09T21:17:52.000Z,98779.51
2023-10-09T21:22:52.000Z,98785.46
2023-10-09T21:27:53.000Z,98785.46
2023-10-09T21:32:53.000Z,98791.2
2023-10-09T21:37:52.000Z,98795.03
2023-10-09T21:42:53.000Z,98795.03
2023-10-09T21:47:52.000Z,98800.65
2023-10-09T21:52:56.000Z,98800.65
2023-10-09T21:57:52.000Z,98805.07
2023-10-09T22:02:53.000Z,98805.07
2023-10-09T22:07:53.000Z,98805.52
2023-10-09T22:12:53.000Z,98805.52
2023-10-09T22:17:52.000Z,98814.28
2023-10-09T22:22:53.000Z,98814.28
2023-10-09T22:27:53.000Z,98817.64
2023-10-09T22:32:53.000Z,98826.95
2023-10-09T22:37:53.000Z,98826.95
2023-10-09T22:42:53.000Z,98828.86
2023-10-09T22:47:53.000Z,98828.86
2023-10-09T22:52:53.000Z,98834.47
2023-10-09T22:57:52.000Z,98834.47
2023-10-09T23:02:53.000Z,98835.71
2023-10-09T23:07:53.000Z,98835.71
2023-10-09T23:12:53.000Z,98840.94
2023-10-09T23:17:53.000Z,98840.94
2023-10-09T23:22:53.000Z,98846.41
2023-10-09T23:27:53.000Z,98846.41
2023-10-09T23:32:52.000Z,98847.32
2023-10-09T23:37:53.000Z,98847.32
2023-10-09T23:42:52.000Z,98852.42
2023-10-09T23:47:53.000Z,98858.32
2023-10-09T23:52:54.000Z,98858.32
2023-10-09T23:57:53.000Z,98864.17
